sensor_id;sensor_type;location;lat;lon;timestamp;P1;durP1;ratioP1;P2;durP2;ratioP2
19173;SDS011;9719;49.322;8.536;2023-04-08T00:03:20;2.22;;;2.10;;
19173;SDS011;9719;49.322;8.536;2023-04-08T00:08:21;4.80;;;2.95;;
19173;SDS011;9719;49.322;8.536;2023-04-08T00:13:23;3.10;;;2.78;;
19173;SDS011;9719;49.322;8.536;2023-04-08T00:18:26;3.83;;;2.63;;
19173;SDS011;9719;49.322;8.536;2023-04-08T00:23:28;4.03;;;2.47;;
19173;SDS011;9719;49.322;8.536;2023-04-08T00:28:30;2.73;;;2.10;;
19173;SDS011;9719;49.322;8.536;2023-04-08T00:33:33;3.00;;;2.67;;
19173;SDS011;9719;49.322;8.536;2023-04-08T00:38:35;2.53;;;2.33;;
19173;SDS011;9719;49.322;8.536;2023-04-08T00:43:37;3.78;;;2.63;;
19173;SDS011;9719;49.322;8.536;2023-04-08T00:48:40;2.50;;;2.27;;
19173;SDS011;9719;49.322;8.536;2023-04-08T00:53:41;3.33;;;2.90;;
19173;SDS011;9719;49.322;8.536;2023-04-08T00:58:43;3.83;;;2.43;;
19173;SDS011;9719;49.322;8.536;2023-04-08T01:03:50;4.70;;;2.87;;
19173;SDS011;9719;49.322;8.536;2023-04-08T01:08:58;3.50;;;2.35;;
19173;SDS011;9719;49.322;8.536;2023-04-08T01:14:00;3.07;;;2.50;;
19173;SDS011;9719;49.322;8.536;2023-04-08T01:19:07;2.90;;;2.20;;
19173;SDS011;9719;49.322;8.536;2023-04-08T01:24:12;5.47;;;3.13;;
19173;SDS011;9719;49.322;8.536;2023-04-08T01:29:21;3.40;;;2.85;;
19173;SDS011;9719;49.322;8.536;2023-04-08T01:34:24;2.60;;;2.40;;
19173;SDS011;9719;49.322;8.536;2023-04-08T01:39:28;3.85;;;3.40;;
19173;SDS011;9719;49.322;8.536;2023-04-08T01:44:32;2.97;;;2.67;;
19173;SDS011;9719;49.322;8.536;2023-04-08T01:49:36;3.47;;;3.17;;
19173;SDS011;9719;49.322;8.536;2023-04-08T01:54:39;3.50;;;3.25;;
19173;SDS011;9719;49.322;8.536;2023-04-08T01:59:42;9.00;;;3.60;;
19173;SDS011;9719;49.322;8.536;2023-04-08T02:04:47;2.50;;;2.30;;
19173;SDS011;9719;49.322;8.536;2023-04-08T02:09:49;3.63;;;3.07;;
19173;SDS011;9719;49.322;8.536;2023-04-08T02:14:52;3.07;;;2.77;;
19173;SDS011;9719;49.322;8.536;2023-04-08T02:19:55;4.07;;;3.13;;
19173;SDS011;9719;49.322;8.536;2023-04-08T02:25:03;4.27;;;3.10;;
19173;SDS011;9719;49.322;8.536;2023-04-08T02:30:10;6.23;;;3.87;;
19173;SDS011;9719;49.322;8.536;2023-04-08T02:35:13;5.47;;;3.55;;
19173;SDS011;9719;49.322;8.536;2023-04-08T02:40:23;3.15;;;2.78;;
19173;SDS011;9719;49.322;8.536;2023-04-08T02:45:29;4.68;;;2.95;;
19173;SDS011;9719;49.322;8.536;2023-04-08T02:50:32;5.77;;;3.03;;
19173;SDS011;9719;49.322;8.536;2023-04-08T02:55:33;5.00;;;2.93;;
19173;SDS011;9719;49.322;8.536;2023-04-08T03:00:36;6.63;;;3.57;;
19173;SDS011;9719;49.322;8.536;2023-04-08T03:05:38;3.87;;;2.97;;
19173;SDS011;9719;49.322;8.536;2023-04-08T03:10:40;4.30;;;3.47;;
19173;SDS011;9719;49.322;8.536;2023-04-08T03:15:43;5.47;;;2.67;;
19173;SDS011;9719;49.322;8.536;2023-04-08T03:20:45;3.50;;;3.10;;
19173;SDS011;9719;49.322;8.536;2023-04-08T03:25:46;3.50;;;2.70;;
19173;SDS011;9719;49.322;8.536;2023-04-08T03:30:49;6.00;;;3.23;;
19173;SDS011;9719;49.322;8.536;2023-04-08T03:35:52;4.87;;;2.97;;
19173;SDS011;9719;49.322;8.536;2023-04-08T03:40:54;2.93;;;2.67;;
19173;SDS011;9719;49.322;8.536;2023-04-08T03:45:56;3.00;;;2.57;;
19173;SDS011;9719;49.322;8.536;2023-04-08T03:50:58;3.70;;;2.57;;
19173;SDS011;9719;49.322;8.536;2023-04-08T03:56:00;3.20;;;2.67;;
19173;SDS011;9719;49.322;8.536;2023-04-08T04:01:04;2.70;;;2.50;;
19173;SDS011;9719;49.322;8.536;2023-04-08T04:06:05;3.50;;;3.20;;
19173;SDS011;9719;49.322;8.536;2023-04-08T04:11:07;4.10;;;2.87;;
19173;SDS011;9719;49.322;8.536;2023-04-08T04:16:10;2.97;;;2.63;;
19173;SDS011;9719;49.322;8.536;2023-04-08T04:21:11;4.73;;;2.60;;
19173;SDS011;9719;49.322;8.536;2023-04-08T04:26:13;3.00;;;2.37;;
19173;SDS011;9719;49.322;8.536;2023-04-08T04:31:19;3.50;;;3.10;;
19173;SDS011;9719;49.322;8.536;2023-04-08T04:36:22;2.87;;;2.67;;
19173;SDS011;9719;49.322;8.536;2023-04-08T04:41:24;5.30;;;3.20;;
19173;SDS011;9719;49.322;8.536;2023-04-08T04:46:27;3.10;;;2.87;;
19173;SDS011;9719;49.322;8.536;2023-04-08T04:51:30;4.37;;;3.00;;
19173;SDS011;9719;49.322;8.536;2023-04-08T04:56:32;4.60;;;3.00;;
19173;SDS011;9719;49.322;8.536;2023-04-08T05:01:35;4.20;;;3.20;;
19173;SDS011;9719;49.322;8.536;2023-04-08T05:06:36;3.83;;;3.20;;
19173;SDS011;9719;49.322;8.536;2023-04-08T05:11:38;4.40;;;3.07;;
19173;SDS011;9719;49.322;8.536;2023-04-08T05:16:41;3.10;;;2.87;;
19173;SDS011;9719;49.322;8.536;2023-04-08T05:21:42;4.23;;;3.60;;
19173;SDS011;9719;49.322;8.536;2023-04-08T05:26:44;3.47;;;3.17;;
19173;SDS011;9719;49.322;8.536;2023-04-08T05:31:48;4.50;;;3.40;;
19173;SDS011;9719;49.322;8.536;2023-04-08T05:36:50;4.87;;;4.40;;
19173;SDS011;9719;49.322;8.536;2023-04-08T05:41:51;5.87;;;4.70;;
19173;SDS011;9719;49.322;8.536;2023-04-08T05:46:55;4.33;;;3.43;;
19173;SDS011;9719;49.322;8.536;2023-04-08T05:51:57;4.30;;;3.00;;
19173;SDS011;9719;49.322;8.536;2023-04-08T05:56:58;5.83;;;3.27;;
19173;SDS011;9719;49.322;8.536;2023-04-08T06:02:01;2.92;;;2.72;;
19173;SDS011;9719;49.322;8.536;2023-04-08T06:07:03;4.07;;;3.28;;
19173;SDS011;9719;49.322;8.536;2023-04-08T06:12:07;5.30;;;3.47;;
19173;SDS011;9719;49.322;8.536;2023-04-08T06:17:10;4.03;;;2.93;;
19173;SDS011;9719;49.322;8.536;2023-04-08T06:22:11;2.70;;;2.50;;
19173;SDS011;9719;49.322;8.536;2023-04-08T06:27:13;2.67;;;2.03;;
19173;SDS011;9719;49.322;8.536;2023-04-08T06:32:16;3.17;;;2.22;;
19173;SDS011;9719;49.322;8.536;2023-04-08T06:37:18;2.60;;;2.40;;
19173;SDS011;9719;49.322;8.536;2023-04-08T06:42:20;1.90;;;1.75;;
19173;SDS011;9719;49.322;8.536;2023-04-08T06:47:23;2.30;;;2.10;;
19173;SDS011;9719;49.322;8.536;2023-04-08T06:52:24;2.63;;;2.28;;
19173;SDS011;9719;49.322;8.536;2023-04-08T06:57:26;2.45;;;2.15;;
19173;SDS011;9719;49.322;8.536;2023-04-08T07:02:29;1.90;;;1.80;;
19173;SDS011;9719;49.322;8.536;2023-04-08T07:07:30;2.70;;;2.50;;
19173;SDS011;9719;49.322;8.536;2023-04-08T07:12:32;2.10;;;1.85;;
19173;SDS011;9719;49.322;8.536;2023-04-08T07:17:35;2.45;;;2.25;;
19173;SDS011;9719;49.322;8.536;2023-04-08T07:22:37;2.58;;;2.38;;
19173;SDS011;9719;49.322;8.536;2023-04-08T07:27:38;2.13;;;1.98;;
19173;SDS011;9719;49.322;8.536;2023-04-08T07:32:41;2.88;;;2.22;;
19173;SDS011;9719;49.322;8.536;2023-04-08T07:37:43;3.42;;;2.38;;
19173;SDS011;9719;49.322;8.536;2023-04-08T07:42:45;2.15;;;1.98;;
19173;SDS011;9719;49.322;8.536;2023-04-08T07:47:48;3.38;;;2.47;;
19173;SDS011;9719;49.322;8.536;2023-04-08T07:52:49;3.90;;;2.58;;
19173;SDS011;9719;49.322;8.536;2023-04-08T07:57:52;6.20;;;2.65;;
19173;SDS011;9719;49.322;8.536;2023-04-08T08:02:55;7.18;;;3.08;;
19173;SDS011;9719;49.322;8.536;2023-04-08T08:07:56;2.90;;;2.70;;
19173;SDS011;9719;49.322;8.536;2023-04-08T08:12:59;3.13;;;2.67;;
19173;SDS011;9719;49.322;8.536;2023-04-08T08:18:02;2.72;;;2.53;;
19173;SDS011;9719;49.322;8.536;2023-04-08T08:23:04;3.00;;;2.80;;
19173;SDS011;9719;49.322;8.536;2023-04-08T08:28:05;2.60;;;2.40;;
19173;SDS011;9719;49.322;8.536;2023-04-08T08:33:09;3.58;;;2.80;;
19173;SDS011;9719;49.322;8.536;2023-04-08T08:38:10;2.45;;;2.25;;
19173;SDS011;9719;49.322;8.536;2023-04-08T08:43:13;2.63;;;2.42;;
19173;SDS011;9719;49.322;8.536;2023-04-08T08:48:16;3.08;;;2.38;;
19173;SDS011;9719;49.322;8.536;2023-04-08T08:53:17;2.15;;;2.03;;
19173;SDS011;9719;49.322;8.536;2023-04-08T08:58:19;2.80;;;1.95;;
19173;SDS011;9719;49.322;8.536;2023-04-08T09:03:24;2.80;;;2.38;;
19173;SDS011;9719;49.322;8.536;2023-04-08T09:08:27;3.75;;;3.13;;
19173;SDS011;9719;49.322;8.536;2023-04-08T09:13:34;4.35;;;2.50;;
19173;SDS011;9719;49.322;8.536;2023-04-08T09:18:38;5.75;;;3.30;;
19173;SDS011;9719;49.322;8.536;2023-04-08T09:23:43;2.50;;;2.30;;
19173;SDS011;9719;49.322;8.536;2023-04-08T09:28:56;2.85;;;2.22;;
19173;SDS011;9719;49.322;8.536;2023-04-08T09:34:00;3.45;;;2.33;;
19173;SDS011;9719;49.322;8.536;2023-04-08T09:39:11;2.92;;;2.72;;
19173;SDS011;9719;49.322;8.536;2023-04-08T09:44:14;2.75;;;2.55;;
19173;SDS011;9719;49.322;8.536;2023-04-08T09:49:25;2.60;;;2.40;;
19173;SDS011;9719;49.322;8.536;2023-04-08T09:54:30;3.08;;;2.83;;
19173;SDS011;9719;49.322;8.536;2023-04-08T09:59:37;3.28;;;2.40;;
19173;SDS011;9719;49.322;8.536;2023-04-08T10:04:48;2.80;;;2.60;;
19173;SDS011;9719;49.322;8.536;2023-04-08T10:09:53;2.88;;;2.58;;
19173;SDS011;9719;49.322;8.536;2023-04-08T10:20:42;2.13;;;2.03;;
19173;SDS011;9719;49.322;8.536;2023-04-08T10:25:45;2.83;;;2.58;;
19173;SDS011;9719;49.322;8.536;2023-04-08T10:30:47;2.97;;;2.78;;
19173;SDS011;9719;49.322;8.536;2023-04-08T10:35:53;5.07;;;2.40;;
19173;SDS011;9719;49.322;8.536;2023-04-08T10:40:59;3.85;;;2.45;;
19173;SDS011;9719;49.322;8.536;2023-04-08T10:46:01;3.83;;;2.58;;
19173;SDS011;9719;49.322;8.536;2023-04-08T10:51:05;2.72;;;2.42;;
19173;SDS011;9719;49.322;8.536;2023-04-08T10:56:07;3.97;;;2.47;;
19173;SDS011;9719;49.322;8.536;2023-04-08T11:01:12;3.25;;;2.40;;
19173;SDS011;9719;49.322;8.536;2023-04-08T11:06:15;2.60;;;2.40;;
19173;SDS011;9719;49.322;8.536;2023-04-08T11:11:17;3.50;;;3.13;;
19173;SDS011;9719;49.322;8.536;2023-04-08T11:16:20;3.15;;;2.92;;
19173;SDS011;9719;49.322;8.536;2023-04-08T11:21:23;3.63;;;2.42;;
19173;SDS011;9719;49.322;8.536;2023-04-08T11:26:28;2.88;;;2.60;;
19173;SDS011;9719;49.322;8.536;2023-04-08T11:31:29;2.50;;;2.30;;
19173;SDS011;9719;49.322;8.536;2023-04-08T11:36:33;3.75;;;2.85;;
19173;SDS011;9719;49.322;8.536;2023-04-08T11:41:36;3.45;;;2.55;;
19173;SDS011;9719;49.322;8.536;2023-04-08T11:46:39;2.67;;;2.47;;
19173;SDS011;9719;49.322;8.536;2023-04-08T11:51:56;2.97;;;2.40;;
19173;SDS011;9719;49.322;8.536;2023-04-08T11:56:59;2.35;;;2.15;;
19173;SDS011;9719;49.322;8.536;2023-04-08T12:02:02;4.75;;;2.72;;
19173;SDS011;9719;49.322;8.536;2023-04-08T12:07:05;3.05;;;2.47;;
19173;SDS011;9719;49.322;8.536;2023-04-08T12:12:06;2.60;;;2.40;;
19173;SDS011;9719;49.322;8.536;2023-04-08T12:17:08;2.38;;;2.15;;
19173;SDS011;9719;49.322;8.536;2023-04-08T12:22:11;3.05;;;2.35;;
19173;SDS011;9719;49.322;8.536;2023-04-08T12:27:13;2.72;;;2.17;;
19173;SDS011;9719;49.322;8.536;2023-04-08T12:32:15;1.70;;;1.60;;
19173;SDS011;9719;49.322;8.536;2023-04-08T12:37:18;1.80;;;1.70;;
19173;SDS011;9719;49.322;8.536;2023-04-08T12:42:20;2.08;;;1.98;;
19173;SDS011;9719;49.322;8.536;2023-04-08T12:47:22;2.75;;;2.28;;
19173;SDS011;9719;49.322;8.536;2023-04-08T12:52:25;2.13;;;1.83;;
19173;SDS011;9719;49.322;8.536;2023-04-08T12:57:26;2.08;;;1.88;;
19173;SDS011;9719;49.322;8.536;2023-04-08T13:02:28;3.55;;;2.30;;
19173;SDS011;9719;49.322;8.536;2023-04-08T13:07:31;3.58;;;2.22;;
19173;SDS011;9719;49.322;8.536;2023-04-08T13:12:33;2.95;;;2.53;;
19173;SDS011;9719;49.322;8.536;2023-04-08T13:17:34;3.05;;;2.50;;
19173;SDS011;9719;49.322;8.536;2023-04-08T13:22:37;2.33;;;2.13;;
19173;SDS011;9719;49.322;8.536;2023-04-08T13:27:40;2.40;;;2.20;;
19173;SDS011;9719;49.322;8.536;2023-04-08T13:32:42;2.13;;;1.92;;
19173;SDS011;9719;49.322;8.536;2023-04-08T13:37:45;2.63;;;2.42;;
19173;SDS011;9719;49.322;8.536;2023-04-08T13:42:46;2.03;;;1.77;;
19173;SDS011;9719;49.322;8.536;2023-04-08T13:47:48;1.88;;;1.77;;
19173;SDS011;9719;49.322;8.536;2023-04-08T13:52:51;1.70;;;1.60;;
19173;SDS011;9719;49.322;8.536;2023-04-08T13:57:53;2.20;;;1.80;;
19173;SDS011;9719;49.322;8.536;2023-04-08T14:02:55;1.30;;;1.20;;
19173;SDS011;9719;49.322;8.536;2023-04-08T14:07:58;1.48;;;1.38;;
19173;SDS011;9719;49.322;8.536;2023-04-08T14:12:59;1.90;;;1.60;;
19173;SDS011;9719;49.322;8.536;2023-04-08T14:18:01;2.83;;;1.50;;
19173;SDS011;9719;49.322;8.536;2023-04-08T14:23:04;2.05;;;1.85;;
19173;SDS011;9719;49.322;8.536;2023-04-08T14:28:06;2.88;;;2.10;;
19173;SDS011;9719;49.322;8.536;2023-04-08T14:33:07;2.40;;;2.28;;
19173;SDS011;9719;49.322;8.536;2023-04-08T14:38:10;2.63;;;2.40;;
19173;SDS011;9719;49.322;8.536;2023-04-08T14:43:12;1.92;;;1.83;;
19173;SDS011;9719;49.322;8.536;2023-04-08T14:48:14;1.90;;;1.67;;
19173;SDS011;9719;49.322;8.536;2023-04-08T14:53:17;1.83;;;1.60;;
19173;SDS011;9719;49.322;8.536;2023-04-08T14:58:18;2.97;;;2.33;;
19173;SDS011;9719;49.322;8.536;2023-04-08T15:03:20;2.15;;;1.95;;
19173;SDS011;9719;49.322;8.536;2023-04-08T15:08:23;2.40;;;1.95;;
19173;SDS011;9719;49.322;8.536;2023-04-08T15:13:25;2.20;;;2.00;;
19173;SDS011;9719;49.322;8.536;2023-04-08T15:18:26;1.80;;;1.70;;
19173;SDS011;9719;49.322;8.536;2023-04-08T15:23:30;2.25;;;2.05;;
19173;SDS011;9719;49.322;8.536;2023-04-08T15:28:31;2.40;;;1.85;;
19173;SDS011;9719;49.322;8.536;2023-04-08T15:33:33;2.13;;;1.90;;
19173;SDS011;9719;49.322;8.536;2023-04-08T15:38:39;2.38;;;2.17;;
19173;SDS011;9719;49.322;8.536;2023-04-08T15:43:40;2.30;;;2.03;;
19173;SDS011;9719;49.322;8.536;2023-04-08T15:48:42;2.05;;;1.85;;
19173;SDS011;9719;49.322;8.536;2023-04-08T15:53:45;2.90;;;2.58;;
19173;SDS011;9719;49.322;8.536;2023-04-08T15:58:49;2.20;;;1.83;;
19173;SDS011;9719;49.322;8.536;2023-04-08T16:03:51;2.67;;;1.80;;
19173;SDS011;9719;49.322;8.536;2023-04-08T16:08:54;1.98;;;1.88;;
19173;SDS011;9719;49.322;8.536;2023-04-08T16:13:56;2.20;;;2.08;;
19173;SDS011;9719;49.322;8.536;2023-04-08T16:18:58;1.60;;;1.50;;
19173;SDS011;9719;49.322;8.536;2023-04-08T16:24:02;1.90;;;1.80;;
19173;SDS011;9719;49.322;8.536;2023-04-08T16:29:05;1.60;;;1.50;;
19173;SDS011;9719;49.322;8.536;2023-04-08T16:34:07;2.00;;;1.63;;
19173;SDS011;9719;49.322;8.536;2023-04-08T16:39:10;1.55;;;1.45;;
19173;SDS011;9719;49.322;8.536;2023-04-08T16:44:12;1.83;;;1.73;;
19173;SDS011;9719;49.322;8.536;2023-04-08T16:49:13;1.52;;;1.42;;
19173;SDS011;9719;49.322;8.536;2023-04-08T16:54:16;1.40;;;1.30;;
19173;SDS011;9719;49.322;8.536;2023-04-08T16:59:18;1.77;;;1.67;;
19173;SDS011;9719;49.322;8.536;2023-04-08T17:04:20;1.95;;;1.35;;
19173;SDS011;9719;49.322;8.536;2023-04-08T17:09:23;1.48;;;1.38;;
19173;SDS011;9719;49.322;8.536;2023-04-08T17:14:24;1.65;;;1.20;;
19173;SDS011;9719;49.322;8.536;2023-04-08T17:19:26;1.17;;;1.17;;
19173;SDS011;9719;49.322;8.536;2023-04-08T17:24:29;1.65;;;1.55;;
19173;SDS011;9719;49.322;8.536;2023-04-08T17:29:31;1.45;;;1.35;;
19173;SDS011;9719;49.322;8.536;2023-04-08T17:34:33;1.58;;;1.48;;
19173;SDS011;9719;49.322;8.536;2023-04-08T17:39:36;1.60;;;1.50;;
19173;SDS011;9719;49.322;8.536;2023-04-08T17:44:39;1.50;;;1.45;;
19173;SDS011;9719;49.322;8.536;2023-04-08T17:49:41;2.90;;;1.70;;
19173;SDS011;9719;49.322;8.536;2023-04-08T17:54:44;7.60;;;1.70;;
19173;SDS011;9719;49.322;8.536;2023-04-08T17:59:46;2.03;;;1.92;;
19173;SDS011;9719;49.322;8.536;2023-04-08T18:04:47;1.33;;;1.30;;
19173;SDS011;9719;49.322;8.536;2023-04-08T18:09:51;1.67;;;1.58;;
19173;SDS011;9719;49.322;8.536;2023-04-08T18:14:53;1.55;;;1.45;;
19173;SDS011;9719;49.322;8.536;2023-04-08T18:19:54;2.50;;;2.15;;
19173;SDS011;9719;49.322;8.536;2023-04-08T18:24:59;1.67;;;1.55;;
19173;SDS011;9719;49.322;8.536;2023-04-08T18:30:01;1.30;;;1.20;;
19173;SDS011;9719;49.322;8.536;2023-04-08T18:35:03;2.03;;;1.50;;
19173;SDS011;9719;49.322;8.536;2023-04-08T18:40:07;1.58;;;1.48;;
19173;SDS011;9719;49.322;8.536;2023-04-08T18:45:09;1.27;;;1.25;;
19173;SDS011;9719;49.322;8.536;2023-04-08T18:50:11;1.92;;;1.83;;
19173;SDS011;9719;49.322;8.536;2023-04-08T18:55:14;1.70;;;1.60;;
19173;SDS011;9719;49.322;8.536;2023-04-08T19:00:16;1.27;;;1.27;;
19173;SDS011;9719;49.322;8.536;2023-04-08T19:05:18;1.60;;;1.50;;
19173;SDS011;9719;49.322;8.536;2023-04-08T19:10:21;3.08;;;1.52;;
19173;SDS011;9719;49.322;8.536;2023-04-08T19:15:24;1.83;;;1.73;;
19173;SDS011;9719;49.322;8.536;2023-04-08T19:20:27;1.50;;;1.40;;
19173;SDS011;9719;49.322;8.536;2023-04-08T19:25:30;2.20;;;2.00;;
19173;SDS011;9719;49.322;8.536;2023-04-08T19:30:33;1.75;;;1.65;;
19173;SDS011;9719;49.322;8.536;2023-04-08T19:35:36;1.48;;;1.38;;
19173;SDS011;9719;49.322;8.536;2023-04-08T19:40:39;1.55;;;1.45;;
19173;SDS011;9719;49.322;8.536;2023-04-08T19:45:41;1.48;;;1.38;;
19173;SDS011;9719;49.322;8.536;2023-04-08T19:50:43;1.55;;;1.50;;
19173;SDS011;9719;49.322;8.536;2023-04-08T19:55:46;3.70;;;2.00;;
19173;SDS011;9719;49.322;8.536;2023-04-08T20:00:48;2.40;;;1.67;;
19173;SDS011;9719;49.322;8.536;2023-04-08T20:05:49;1.80;;;1.70;;
19173;SDS011;9719;49.322;8.536;2023-04-08T20:10:52;2.00;;;1.77;;
19173;SDS011;9719;49.322;8.536;2023-04-08T20:15:54;1.85;;;1.75;;
19173;SDS011;9719;49.322;8.536;2023-04-08T20:20:57;2.55;;;1.90;;
19173;SDS011;9719;49.322;8.536;2023-04-08T20:26:00;1.88;;;1.77;;
19173;SDS011;9719;49.322;8.536;2023-04-08T20:31:02;1.95;;;1.80;;
19173;SDS011;9719;49.322;8.536;2023-04-08T20:36:04;1.98;;;1.88;;
19173;SDS011;9719;49.322;8.536;2023-04-08T20:41:07;1.60;;;1.50;;
19173;SDS011;9719;49.322;8.536;2023-04-08T20:46:09;1.75;;;1.63;;
19173;SDS011;9719;49.322;8.536;2023-04-08T20:51:10;1.70;;;1.60;;
19173;SDS011;9719;49.322;8.536;2023-04-08T20:56:13;1.50;;;1.50;;
19173;SDS011;9719;49.322;8.536;2023-04-08T21:01:15;1.50;;;1.40;;
19173;SDS011;9719;49.322;8.536;2023-04-08T21:06:17;1.80;;;1.70;;
19173;SDS011;9719;49.322;8.536;2023-04-08T21:11:21;1.77;;;1.67;;
19173;SDS011;9719;49.322;8.536;2023-04-08T21:16:22;2.00;;;1.80;;
19173;SDS011;9719;49.322;8.536;2023-04-08T21:21:24;2.00;;;1.75;;
19173;SDS011;9719;49.322;8.536;2023-04-08T21:26:27;1.85;;;1.67;;
19173;SDS011;9719;49.322;8.536;2023-04-08T21:31:29;2.00;;;1.90;;
19173;SDS011;9719;49.322;8.536;2023-04-08T21:36:31;1.33;;;1.33;;
19173;SDS011;9719;49.322;8.536;2023-04-08T21:41:34;2.05;;;1.83;;
19173;SDS011;9719;49.322;8.536;2023-04-08T21:46:36;1.73;;;1.63;;
19173;SDS011;9719;49.322;8.536;2023-04-08T21:51:38;2.00;;;1.83;;
19173;SDS011;9719;49.322;8.536;2023-04-08T21:56:41;1.73;;;1.67;;
19173;SDS011;9719;49.322;8.536;2023-04-08T22:01:43;2.33;;;2.22;;
19173;SDS011;9719;49.322;8.536;2023-04-08T22:06:45;1.45;;;1.35;;
19173;SDS011;9719;49.322;8.536;2023-04-08T22:11:49;6.32;;;2.70;;
19173;SDS011;9719;49.322;8.536;2023-04-08T22:16:51;1.52;;;1.42;;
19173;SDS011;9719;49.322;8.536;2023-04-08T22:21:53;2.38;;;2.13;;
19173;SDS011;9719;49.322;8.536;2023-04-08T22:26:56;1.80;;;1.70;;
19173;SDS011;9719;49.322;8.536;2023-04-08T22:31:58;2.78;;;2.38;;
19173;SDS011;9719;49.322;8.536;2023-04-08T22:36:59;2.70;;;2.33;;
19173;SDS011;9719;49.322;8.536;2023-04-08T22:42:03;1.70;;;1.60;;
19173;SDS011;9719;49.322;8.536;2023-04-08T22:47:05;3.33;;;1.97;;
19173;SDS011;9719;49.322;8.536;2023-04-08T22:52:06;2.37;;;1.93;;
19173;SDS011;9719;49.322;8.536;2023-04-08T22:57:09;1.63;;;1.50;;
19173;SDS011;9719;49.322;8.536;2023-04-08T23:02:11;2.53;;;2.13;;
19173;SDS011;9719;49.322;8.536;2023-04-08T23:07:13;2.00;;;1.90;;
19173;SDS011;9719;49.322;8.536;2023-04-08T23:12:16;2.80;;;2.60;;
19173;SDS011;9719;49.322;8.536;2023-04-08T23:17:17;3.78;;;2.88;;
19173;SDS011;9719;49.322;8.536;2023-04-08T23:22:19;2.55;;;2.35;;
19173;SDS011;9719;49.322;8.536;2023-04-08T23:27:22;2.10;;;1.85;;
19173;SDS011;9719;49.322;8.536;2023-04-08T23:32:24;2.58;;;1.70;;
19173;SDS011;9719;49.322;8.536;2023-04-08T23:37:26;3.40;;;2.35;;
19173;SDS011;9719;49.322;8.536;2023-04-08T23:42:30;2.83;;;2.00;;
19173;SDS011;9719;49.322;8.536;2023-04-08T23:47:32;3.97;;;3.63;;
19173;SDS011;9719;49.322;8.536;2023-04-08T23:52:34;2.35;;;2.25;;
19173;SDS011;9719;49.322;8.536;2023-04-08T23:57:39;2.13;;;1.98;;
